Heaters, WV (26627)

4:56 AM EST en Diciembre 08, 2016 (GMT -0500)
Caress, WV | | Change Station

Alt 1547 ft 38.70 °N, 80.56 °W | Updated 42 seconds ago

Nublado
Nublado
30.6 ° F
Sensación térmica 31 ° F
N
0.0
Viento Variable Viento desde OSO
Gusts 0.0 mph

Hoy
Alta -- | Baja -- ° F
--% Posibilidad de precipitaciones
Ayer
Alta -- | Baja -- ° F
Precip. -- pul
Presión 30.06 pul
Visibilidad -9999.0 Millas
Nubes Nublado 7000 ft
Vientos helados 31 ° F
Punto de rocío 15 ° F
Humedad 53%
Precipitaciones 0.00 pul
Espesor de la nieve No disponible.
7:28 AM 5:00 PM
Cuarto creciente, 61% visible
METAR KW22 080935Z AUTO 25005KT OVC070 M01/M03 A3006 RMK AO2 PWINO
Presión 30.06 pul
Visibilidad -9999.0 Millas
Nubes Nublado 7000 ft
Vientos helados 31 ° F
Punto de rocío 15 ° F
Humedad 53%
Precipitaciones 0.00 pul
Espesor de la nieve No disponible.
7:28 AM 5:00 PM
Cuarto creciente, 61% visible
METAR KW22 080935Z AUTO 25005KT OVC070 M01/M03 A3006 RMK AO2 PWINO

10-Day Weather Forecast

Almanac

Astronomía

Dec. 08, 2016 Salida Puesta
Hora real
Crepúsculo civil
Crepúsculo náutico
Crepúsculo astronómico
Luna
Horas de luz
Horas de luz
Tomorrow will be .
, % of the Moon is Illuminated

Extremos de hoy

Máximos del estado Bajos del estado

Community

WunderPhotos

Upload Photos

1,956,261 ¡fotos cargadas!

WunderBlog® & News

Nearby

Calidad del aire

  Calidad del aire Índice AQ Contaminante
Not available.

Grosos de nieve

Estación Profundido Altura

Actividad de terremotos

Ciudad Distance Mag. Tiempo y dato
Magnitud mínima muestra es 2,5.

Temperaturas de aguas costeras

Lugar Temperatura

Stations

Estaciones meteorológicas cercanas

Ubicación de la estación Temp. Vientos helados Punto de rocío Humedad Viento Precip. Alt Actualizado Tipo
                   

Watches & Warnings

There are currently no watches in effect.